sensor_id;sensor_type;location;lat;lon;timestamp;P1;durP1;ratioP1;P2;durP2;ratioP2
16593;SDS011;8410;52.532;13.336;2023-04-03T00:00:45;16.53;;;2.13;;
16593;SDS011;8410;52.532;13.336;2023-04-03T00:03:12;4.03;;;1.60;;
16593;SDS011;8410;52.532;13.336;2023-04-03T00:05:41;5.23;;;1.63;;
16593;SDS011;8410;52.532;13.336;2023-04-03T00:08:08;5.20;;;1.40;;
16593;SDS011;8410;52.532;13.336;2023-04-03T00:10:36;5.93;;;1.63;;
16593;SDS011;8410;52.532;13.336;2023-04-03T00:13:05;5.17;;;1.90;;
16593;SDS011;8410;52.532;13.336;2023-04-03T00:15:35;6.27;;;1.97;;
16593;SDS011;8410;52.532;13.336;2023-04-03T00:18:03;6.57;;;1.63;;
16593;SDS011;8410;52.532;13.336;2023-04-03T00:20:32;4.67;;;1.70;;
16593;SDS011;8410;52.532;13.336;2023-04-03T00:23:00;5.47;;;1.87;;
16593;SDS011;8410;52.532;13.336;2023-04-03T00:25:29;4.30;;;1.50;;
16593;SDS011;8410;52.532;13.336;2023-04-03T00:27:56;10.37;;;2.13;;
16593;SDS011;8410;52.532;13.336;2023-04-03T00:30:24;4.80;;;1.60;;
16593;SDS011;8410;52.532;13.336;2023-04-03T00:32:53;6.03;;;1.60;;
16593;SDS011;8410;52.532;13.336;2023-04-03T00:35:21;4.30;;;1.67;;
16593;SDS011;8410;52.532;13.336;2023-04-03T00:37:51;3.93;;;1.97;;
16593;SDS011;8410;52.532;13.336;2023-04-03T00:40:19;2.83;;;1.80;;
16593;SDS011;8410;52.532;13.336;2023-04-03T00:42:48;5.80;;;1.77;;
16593;SDS011;8410;52.532;13.336;2023-04-03T00:45:24;7.27;;;1.57;;
16593;SDS011;8410;52.532;13.336;2023-04-03T00:47:56;7.20;;;2.00;;
16593;SDS011;8410;52.532;13.336;2023-04-03T00:50:26;5.13;;;1.53;;
16593;SDS011;8410;52.532;13.336;2023-04-03T00:52:55;5.73;;;1.43;;
16593;SDS011;8410;52.532;13.336;2023-04-03T00:55:24;3.90;;;1.73;;
16593;SDS011;8410;52.532;13.336;2023-04-03T00:57:52;3.93;;;1.60;;
16593;SDS011;8410;52.532;13.336;2023-04-03T01:00:21;6.17;;;1.60;;
16593;SDS011;8410;52.532;13.336;2023-04-03T01:02:50;3.80;;;1.40;;
16593;SDS011;8410;52.532;13.336;2023-04-03T01:05:20;3.73;;;1.60;;
16593;SDS011;8410;52.532;13.336;2023-04-03T01:07:48;2.20;;;1.43;;
16593;SDS011;8410;52.532;13.336;2023-04-03T01:10:18;4.97;;;1.63;;
16593;SDS011;8410;52.532;13.336;2023-04-03T01:12:47;3.73;;;1.60;;
16593;SDS011;8410;52.532;13.336;2023-04-03T01:15:17;4.47;;;1.70;;
16593;SDS011;8410;52.532;13.336;2023-04-03T01:17:46;6.63;;;2.17;;
16593;SDS011;8410;52.532;13.336;2023-04-03T01:20:21;6.50;;;1.90;;
16593;SDS011;8410;52.532;13.336;2023-04-03T01:23:06;4.77;;;1.60;;
16593;SDS011;8410;52.532;13.336;2023-04-03T01:25:46;5.20;;;1.83;;
16593;SDS011;8410;52.532;13.336;2023-04-03T01:28:16;4.17;;;1.50;;
16593;SDS011;8410;52.532;13.336;2023-04-03T01:30:47;3.67;;;1.60;;
16593;SDS011;8410;52.532;13.336;2023-04-03T01:33:19;5.23;;;1.80;;
16593;SDS011;8410;52.532;13.336;2023-04-03T01:35:47;4.40;;;1.67;;
16593;SDS011;8410;52.532;13.336;2023-04-03T01:38:14;4.53;;;1.93;;
16593;SDS011;8410;52.532;13.336;2023-04-03T01:40:42;7.30;;;2.10;;
16593;SDS011;8410;52.532;13.336;2023-04-03T01:43:09;5.40;;;2.00;;
16593;SDS011;8410;52.532;13.336;2023-04-03T01:45:37;3.90;;;1.80;;
16593;SDS011;8410;52.532;13.336;2023-04-03T01:48:04;3.43;;;1.30;;
16593;SDS011;8410;52.532;13.336;2023-04-03T01:50:33;5.90;;;1.90;;
16593;SDS011;8410;52.532;13.336;2023-04-03T01:53:01;3.67;;;1.33;;
16593;SDS011;8410;52.532;13.336;2023-04-03T01:55:28;6.33;;;2.07;;
16593;SDS011;8410;52.532;13.336;2023-04-03T01:57:57;6.97;;;1.70;;
16593;SDS011;8410;52.532;13.336;2023-04-03T02:00:24;6.10;;;1.70;;
16593;SDS011;8410;52.532;13.336;2023-04-03T02:02:52;2.37;;;1.40;;
16593;SDS011;8410;52.532;13.336;2023-04-03T02:05:20;3.70;;;1.47;;
16593;SDS011;8410;52.532;13.336;2023-04-03T02:07:49;8.67;;;1.67;;
16593;SDS011;8410;52.532;13.336;2023-04-03T02:10:17;6.17;;;1.33;;
16593;SDS011;8410;52.532;13.336;2023-04-03T02:12:44;3.47;;;1.37;;
16593;SDS011;8410;52.532;13.336;2023-04-03T02:15:13;2.77;;;1.43;;
16593;SDS011;8410;52.532;13.336;2023-04-03T02:17:41;4.77;;;1.53;;
16593;SDS011;8410;52.532;13.336;2023-04-03T02:20:09;7.50;;;1.87;;
16593;SDS011;8410;52.532;13.336;2023-04-03T02:22:37;4.47;;;1.87;;
16593;SDS011;8410;52.532;13.336;2023-04-03T02:25:06;5.60;;;1.90;;
16593;SDS011;8410;52.532;13.336;2023-04-03T02:27:33;6.90;;;2.00;;
16593;SDS011;8410;52.532;13.336;2023-04-03T02:30:01;6.87;;;2.33;;
16593;SDS011;8410;52.532;13.336;2023-04-03T02:32:29;4.00;;;1.80;;
16593;SDS011;8410;52.532;13.336;2023-04-03T02:34:57;5.43;;;1.77;;
16593;SDS011;8410;52.532;13.336;2023-04-03T02:37:24;3.40;;;1.60;;
16593;SDS011;8410;52.532;13.336;2023-04-03T02:39:52;7.10;;;2.03;;
16593;SDS011;8410;52.532;13.336;2023-04-03T02:42:20;3.23;;;1.83;;
16593;SDS011;8410;52.532;13.336;2023-04-03T02:44:48;3.73;;;1.97;;
16593;SDS011;8410;52.532;13.336;2023-04-03T02:47:15;4.00;;;1.97;;
16593;SDS011;8410;52.532;13.336;2023-04-03T02:49:43;5.13;;;1.80;;
16593;SDS011;8410;52.532;13.336;2023-04-03T02:52:12;3.63;;;1.40;;
16593;SDS011;8410;52.532;13.336;2023-04-03T02:54:39;5.50;;;1.80;;
16593;SDS011;8410;52.532;13.336;2023-04-03T02:57:07;7.17;;;1.67;;
16593;SDS011;8410;52.532;13.336;2023-04-03T02:59:37;3.67;;;1.90;;
16593;SDS011;8410;52.532;13.336;2023-04-03T03:02:06;7.10;;;2.27;;
16593;SDS011;8410;52.532;13.336;2023-04-03T03:04:34;6.07;;;1.70;;
16593;SDS011;8410;52.532;13.336;2023-04-03T03:07:02;4.60;;;1.97;;
16593;SDS011;8410;52.532;13.336;2023-04-03T03:09:30;5.97;;;1.83;;
16593;SDS011;8410;52.532;13.336;2023-04-03T03:11:58;5.33;;;2.00;;
16593;SDS011;8410;52.532;13.336;2023-04-03T03:14:25;6.27;;;1.80;;
16593;SDS011;8410;52.532;13.336;2023-04-03T03:16:54;4.17;;;1.90;;
16593;SDS011;8410;52.532;13.336;2023-04-03T03:19:21;8.20;;;2.10;;
16593;SDS011;8410;52.532;13.336;2023-04-03T03:21:49;5.37;;;1.50;;
16593;SDS011;8410;52.532;13.336;2023-04-03T03:24:17;7.77;;;1.83;;
16593;SDS011;8410;52.532;13.336;2023-04-03T03:26:44;5.63;;;1.93;;
16593;SDS011;8410;52.532;13.336;2023-04-03T03:29:12;3.73;;;1.43;;
16593;SDS011;8410;52.532;13.336;2023-04-03T03:31:39;4.40;;;2.13;;
16593;SDS011;8410;52.532;13.336;2023-04-03T03:34:08;12.10;;;1.97;;
16593;SDS011;8410;52.532;13.336;2023-04-03T03:36:36;4.73;;;1.70;;
16593;SDS011;8410;52.532;13.336;2023-04-03T03:39:03;5.60;;;1.93;;
16593;SDS011;8410;52.532;13.336;2023-04-03T03:41:31;4.43;;;1.87;;
16593;SDS011;8410;52.532;13.336;2023-04-03T03:43:58;4.07;;;1.67;;
16593;SDS011;8410;52.532;13.336;2023-04-03T03:46:26;4.53;;;1.90;;
16593;SDS011;8410;52.532;13.336;2023-04-03T03:48:53;3.97;;;1.57;;
16593;SDS011;8410;52.532;13.336;2023-04-03T03:51:22;3.30;;;1.50;;
16593;SDS011;8410;52.532;13.336;2023-04-03T03:53:49;6.30;;;2.00;;
16593;SDS011;8410;52.532;13.336;2023-04-03T03:56:17;5.93;;;1.70;;
16593;SDS011;8410;52.532;13.336;2023-04-03T03:58:44;3.17;;;1.70;;
16593;SDS011;8410;52.532;13.336;2023-04-03T04:01:12;9.57;;;2.20;;
16593;SDS011;8410;52.532;13.336;2023-04-03T04:03:39;3.40;;;2.00;;
16593;SDS011;8410;52.532;13.336;2023-04-03T04:06:07;5.87;;;1.93;;
16593;SDS011;8410;52.532;13.336;2023-04-03T04:08:36;6.50;;;2.30;;
16593;SDS011;8410;52.532;13.336;2023-04-03T04:11:03;6.97;;;2.53;;
16593;SDS011;8410;52.532;13.336;2023-04-03T04:13:30;6.23;;;1.40;;
16593;SDS011;8410;52.532;13.336;2023-04-03T04:15:58;7.50;;;1.90;;
16593;SDS011;8410;52.532;13.336;2023-04-03T04:18:25;4.20;;;1.60;;
16593;SDS011;8410;52.532;13.336;2023-04-03T04:20:53;3.77;;;1.43;;
16593;SDS011;8410;52.532;13.336;2023-04-03T04:23:20;8.27;;;1.67;;
16593;SDS011;8410;52.532;13.336;2023-04-03T04:25:49;3.53;;;1.47;;
16593;SDS011;8410;52.532;13.336;2023-04-03T04:28:18;4.57;;;1.60;;
16593;SDS011;8410;52.532;13.336;2023-04-03T04:30:45;3.83;;;1.43;;
16593;SDS011;8410;52.532;13.336;2023-04-03T04:33:13;4.70;;;2.17;;
16593;SDS011;8410;52.532;13.336;2023-04-03T04:35:41;10.73;;;1.63;;
16593;SDS011;8410;52.532;13.336;2023-04-03T04:38:09;5.40;;;1.90;;
16593;SDS011;8410;52.532;13.336;2023-04-03T04:40:37;4.20;;;1.43;;
16593;SDS011;8410;52.532;13.336;2023-04-03T04:43:05;4.83;;;1.80;;
16593;SDS011;8410;52.532;13.336;2023-04-03T04:45:33;6.67;;;1.57;;
16593;SDS011;8410;52.532;13.336;2023-04-03T04:48:01;8.50;;;2.97;;
16593;SDS011;8410;52.532;13.336;2023-04-03T04:50:28;5.83;;;1.87;;
16593;SDS011;8410;52.532;13.336;2023-04-03T04:52:56;6.10;;;1.53;;
16593;SDS011;8410;52.532;13.336;2023-04-03T04:55:23;5.47;;;1.57;;
16593;SDS011;8410;52.532;13.336;2023-04-03T04:57:51;3.53;;;1.60;;
16593;SDS011;8410;52.532;13.336;2023-04-03T05:00:20;5.17;;;1.43;;
16593;SDS011;8410;52.532;13.336;2023-04-03T05:02:48;3.67;;;1.87;;
16593;SDS011;8410;52.532;13.336;2023-04-03T05:05:15;5.47;;;1.57;;
16593;SDS011;8410;52.532;13.336;2023-04-03T05:07:43;5.27;;;1.57;;
16593;SDS011;8410;52.532;13.336;2023-04-03T05:10:11;3.63;;;1.30;;
16593;SDS011;8410;52.532;13.336;2023-04-03T05:12:38;5.03;;;1.43;;
16593;SDS011;8410;52.532;13.336;2023-04-03T05:15:06;7.23;;;1.93;;
16593;SDS011;8410;52.532;13.336;2023-04-03T05:17:36;6.87;;;2.27;;
16593;SDS011;8410;52.532;13.336;2023-04-03T05:20:04;4.33;;;1.50;;
16593;SDS011;8410;52.532;13.336;2023-04-03T05:22:32;5.20;;;1.43;;
16593;SDS011;8410;52.532;13.336;2023-04-03T05:25:00;3.23;;;1.60;;
16593;SDS011;8410;52.532;13.336;2023-04-03T05:27:27;4.47;;;1.63;;
16593;SDS011;8410;52.532;13.336;2023-04-03T05:29:55;8.50;;;2.13;;
16593;SDS011;8410;52.532;13.336;2023-04-03T05:32:23;8.40;;;1.90;;
16593;SDS011;8410;52.532;13.336;2023-04-03T05:34:54;6.70;;;1.80;;
16593;SDS011;8410;52.532;13.336;2023-04-03T05:37:22;4.80;;;1.50;;
16593;SDS011;8410;52.532;13.336;2023-04-03T05:39:50;8.00;;;1.60;;
16593;SDS011;8410;52.532;13.336;2023-04-03T05:42:17;6.57;;;2.40;;
16593;SDS011;8410;52.532;13.336;2023-04-03T05:44:45;2.70;;;1.40;;
16593;SDS011;8410;52.532;13.336;2023-04-03T05:47:13;7.10;;;1.80;;
16593;SDS011;8410;52.532;13.336;2023-04-03T05:49:40;8.77;;;2.13;;
16593;SDS011;8410;52.532;13.336;2023-04-03T05:52:11;5.27;;;1.80;;
16593;SDS011;8410;52.532;13.336;2023-04-03T05:54:47;5.23;;;1.57;;
16593;SDS011;8410;52.532;13.336;2023-04-03T05:57:15;5.77;;;2.00;;
16593;SDS011;8410;52.532;13.336;2023-04-03T05:59:43;7.07;;;1.93;;
16593;SDS011;8410;52.532;13.336;2023-04-03T06:02:11;7.07;;;1.80;;
16593;SDS011;8410;52.532;13.336;2023-04-03T06:04:40;5.43;;;1.90;;
16593;SDS011;8410;52.532;13.336;2023-04-03T06:07:09;3.10;;;1.63;;
16593;SDS011;8410;52.532;13.336;2023-04-03T06:09:41;5.50;;;1.63;;
16593;SDS011;8410;52.532;13.336;2023-04-03T06:12:09;7.63;;;1.63;;
16593;SDS011;8410;52.532;13.336;2023-04-03T06:14:37;7.40;;;1.33;;
16593;SDS011;8410;52.532;13.336;2023-04-03T06:17:05;8.73;;;1.70;;
16593;SDS011;8410;52.532;13.336;2023-04-03T06:19:33;4.33;;;1.60;;
16593;SDS011;8410;52.532;13.336;2023-04-03T06:22:00;4.63;;;1.70;;
16593;SDS011;8410;52.532;13.336;2023-04-03T06:24:30;5.47;;;1.83;;
16593;SDS011;8410;52.532;13.336;2023-04-03T06:26:58;5.23;;;1.80;;
16593;SDS011;8410;52.532;13.336;2023-04-03T06:29:26;4.13;;;1.67;;
16593;SDS011;8410;52.532;13.336;2023-04-03T06:31:53;5.93;;;2.20;;
16593;SDS011;8410;52.532;13.336;2023-04-03T06:34:21;6.47;;;2.23;;
16593;SDS011;8410;52.532;13.336;2023-04-03T06:36:48;3.50;;;1.67;;
16593;SDS011;8410;52.532;13.336;2023-04-03T06:39:24;7.57;;;1.80;;
16593;SDS011;8410;52.532;13.336;2023-04-03T06:41:53;5.10;;;1.67;;
16593;SDS011;8410;52.532;13.336;2023-04-03T06:44:21;3.37;;;1.80;;
16593;SDS011;8410;52.532;13.336;2023-04-03T06:46:48;2.93;;;1.30;;
16593;SDS011;8410;52.532;13.336;2023-04-03T06:49:16;5.27;;;1.43;;
16593;SDS011;8410;52.532;13.336;2023-04-03T06:51:43;3.57;;;1.47;;
16593;SDS011;8410;52.532;13.336;2023-04-03T06:54:11;3.07;;;1.37;;
16593;SDS011;8410;52.532;13.336;2023-04-03T07:02:30;2.73;;;1.10;;
16593;SDS011;8410;52.532;13.336;2023-04-03T07:04:58;4.67;;;1.30;;
16593;SDS011;8410;52.532;13.336;2023-04-03T07:07:25;4.47;;;1.27;;
16593;SDS011;8410;52.532;13.336;2023-04-03T07:09:53;4.93;;;1.40;;
16593;SDS011;8410;52.532;13.336;2023-04-03T07:12:20;3.60;;;1.43;;
16593;SDS011;8410;52.532;13.336;2023-04-03T07:14:48;4.83;;;1.33;;
16593;SDS011;8410;52.532;13.336;2023-04-03T07:17:15;2.80;;;1.40;;
16593;SDS011;8410;52.532;13.336;2023-04-03T07:19:45;4.50;;;1.50;;
16593;SDS011;8410;52.532;13.336;2023-04-03T07:22:12;2.40;;;1.33;;
16593;SDS011;8410;52.532;13.336;2023-04-03T07:24:39;4.63;;;1.37;;
16593;SDS011;8410;52.532;13.336;2023-04-03T07:27:07;3.40;;;1.30;;
16593;SDS011;8410;52.532;13.336;2023-04-03T07:29:34;3.30;;;1.20;;
16593;SDS011;8410;52.532;13.336;2023-04-03T07:32:02;2.17;;;0.90;;
16593;SDS011;8410;52.532;13.336;2023-04-03T07:34:30;1.07;;;0.80;;
16593;SDS011;8410;52.532;13.336;2023-04-03T07:37:00;3.30;;;1.57;;
16593;SDS011;8410;52.532;13.336;2023-04-03T07:39:28;2.03;;;1.03;;
16593;SDS011;8410;52.532;13.336;2023-04-03T07:41:56;2.23;;;1.40;;
16593;SDS011;8410;52.532;13.336;2023-04-03T07:44:23;3.80;;;1.80;;
16593;SDS011;8410;52.532;13.336;2023-04-03T07:46:51;4.53;;;1.37;;
16593;SDS011;8410;52.532;13.336;2023-04-03T07:49:18;3.27;;;0.90;;
16593;SDS011;8410;52.532;13.336;2023-04-03T07:51:46;4.63;;;1.70;;
16593;SDS011;8410;52.532;13.336;2023-04-03T07:54:15;2.00;;;0.93;;
16593;SDS011;8410;52.532;13.336;2023-04-03T07:56:43;2.20;;;0.90;;
16593;SDS011;8410;52.532;13.336;2023-04-03T07:59:11;2.70;;;1.17;;
16593;SDS011;8410;52.532;13.336;2023-04-03T08:01:38;6.33;;;1.10;;
16593;SDS011;8410;52.532;13.336;2023-04-03T08:04:06;2.70;;;0.87;;
16593;SDS011;8410;52.532;13.336;2023-04-03T08:06:33;3.20;;;1.47;;
16593;SDS011;8410;52.532;13.336;2023-04-03T08:09:11;6.37;;;1.67;;
16593;SDS011;8410;52.532;13.336;2023-04-03T08:11:40;3.00;;;1.30;;
16593;SDS011;8410;52.532;13.336;2023-04-03T08:14:08;5.70;;;1.53;;
16593;SDS011;8410;52.532;13.336;2023-04-03T08:16:41;3.13;;;1.13;;
16593;SDS011;8410;52.532;13.336;2023-04-03T08:19:09;4.77;;;1.63;;
16593;SDS011;8410;52.532;13.336;2023-04-03T08:21:50;2.07;;;0.90;;
16593;SDS011;8410;52.532;13.336;2023-04-03T08:24:17;4.13;;;1.40;;
16593;SDS011;8410;52.532;13.336;2023-04-03T08:26:46;2.70;;;1.30;;
16593;SDS011;8410;52.532;13.336;2023-04-03T08:29:13;2.03;;;1.37;;
16593;SDS011;8410;52.532;13.336;2023-04-03T08:31:41;3.13;;;1.80;;
16593;SDS011;8410;52.532;13.336;2023-04-03T08:34:08;4.10;;;1.13;;
16593;SDS011;8410;52.532;13.336;2023-04-03T08:36:37;4.03;;;1.40;;
16593;SDS011;8410;52.532;13.336;2023-04-03T08:39:04;3.33;;;1.70;;
16593;SDS011;8410;52.532;13.336;2023-04-03T08:41:33;2.90;;;1.20;;
16593;SDS011;8410;52.532;13.336;2023-04-03T08:44:04;4.03;;;1.03;;
16593;SDS011;8410;52.532;13.336;2023-04-03T08:49:31;3.40;;;2.00;;
16593;SDS011;8410;52.532;13.336;2023-04-03T08:52:04;5.57;;;1.43;;
16593;SDS011;8410;52.532;13.336;2023-04-03T08:54:38;2.00;;;1.00;;
16593;SDS011;8410;52.532;13.336;2023-04-03T08:57:17;3.57;;;1.50;;
16593;SDS011;8410;52.532;13.336;2023-04-03T08:59:51;1.90;;;1.27;;
16593;SDS011;8410;52.532;13.336;2023-04-03T09:02:29;3.83;;;1.10;;
16593;SDS011;8410;52.532;13.336;2023-04-03T09:05:01;2.70;;;1.20;;
16593;SDS011;8410;52.532;13.336;2023-04-03T09:07:38;3.33;;;0.93;;
16593;SDS011;8410;52.532;13.336;2023-04-03T09:10:09;2.20;;;1.17;;
16593;SDS011;8410;52.532;13.336;2023-04-03T09:12:39;2.53;;;1.03;;
16593;SDS011;8410;52.532;13.336;2023-04-03T09:15:13;6.57;;;1.43;;
16593;SDS011;8410;52.532;13.336;2023-04-03T09:17:59;3.57;;;1.70;;
16593;SDS011;8410;52.532;13.336;2023-04-03T09:20:33;3.83;;;1.30;;
16593;SDS011;8410;52.532;13.336;2023-04-03T09:23:17;3.63;;;1.07;;
16593;SDS011;8410;52.532;13.336;2023-04-03T09:25:47;2.17;;;1.07;;
16593;SDS011;8410;52.532;13.336;2023-04-03T09:28:17;3.13;;;1.07;;
16593;SDS011;8410;52.532;13.336;2023-04-03T09:30:46;2.77;;;1.07;;
16593;SDS011;8410;52.532;13.336;2023-04-03T09:33:13;3.03;;;1.00;;
16593;SDS011;8410;52.532;13.336;2023-04-03T09:35:41;2.83;;;1.13;;
16593;SDS011;8410;52.532;13.336;2023-04-03T09:38:15;1.53;;;0.87;;
16593;SDS011;8410;52.532;13.336;2023-04-03T09:40:45;2.57;;;1.57;;
16593;SDS011;8410;52.532;13.336;2023-04-03T09:43:21;3.93;;;1.40;;
16593;SDS011;8410;52.532;13.336;2023-04-03T09:45:56;3.67;;;1.40;;
16593;SDS011;8410;52.532;13.336;2023-04-03T09:48:52;2.50;;;0.90;;
16593;SDS011;8410;52.532;13.336;2023-04-03T09:51:34;2.67;;;1.50;;
16593;SDS011;8410;52.532;13.336;2023-04-03T09:54:23;3.07;;;1.20;;
16593;SDS011;8410;52.532;13.336;2023-04-03T09:56:53;2.67;;;1.20;;
16593;SDS011;8410;52.532;13.336;2023-04-03T09:59:22;5.43;;;1.33;;
16593;SDS011;8410;52.532;13.336;2023-04-03T10:01:59;4.37;;;1.17;;
16593;SDS011;8410;52.532;13.336;2023-04-03T10:04:37;3.90;;;1.10;;
16593;SDS011;8410;52.532;13.336;2023-04-03T10:09:59;2.17;;;0.90;;
16593;SDS011;8410;52.532;13.336;2023-04-03T10:12:30;3.17;;;1.37;;
16593;SDS011;8410;52.532;13.336;2023-04-03T10:14:58;2.23;;;1.10;;
16593;SDS011;8410;52.532;13.336;2023-04-03T10:17:48;3.87;;;1.23;;
16593;SDS011;8410;52.532;13.336;2023-04-03T10:20:23;2.33;;;1.07;;
16593;SDS011;8410;52.532;13.336;2023-04-03T10:23:00;1.50;;;1.17;;
16593;SDS011;8410;52.532;13.336;2023-04-03T10:25:40;3.50;;;1.00;;
16593;SDS011;8410;52.532;13.336;2023-04-03T10:28:16;3.73;;;1.10;;
16593;SDS011;8410;52.532;13.336;2023-04-03T10:30:53;2.80;;;1.30;;
16593;SDS011;8410;52.532;13.336;2023-04-03T10:33:35;1.27;;;0.97;;
16593;SDS011;8410;52.532;13.336;2023-04-03T10:36:16;5.33;;;1.07;;
16593;SDS011;8410;52.532;13.336;2023-04-03T10:38:54;3.13;;;1.40;;
16593;SDS011;8410;52.532;13.336;2023-04-03T10:41:30;3.03;;;1.00;;
16593;SDS011;8410;52.532;13.336;2023-04-03T10:44:10;3.13;;;1.00;;
16593;SDS011;8410;52.532;13.336;2023-04-03T10:46:43;1.43;;;1.00;;
16593;SDS011;8410;52.532;13.336;2023-04-03T10:49:21;1.50;;;1.00;;
16593;SDS011;8410;52.532;13.336;2023-04-03T10:51:56;0.93;;;0.80;;
16593;SDS011;8410;52.532;13.336;2023-04-03T10:54:32;3.50;;;0.80;;
16593;SDS011;8410;52.532;13.336;2023-04-03T10:57:05;2.33;;;0.93;;
16593;SDS011;8410;52.532;13.336;2023-04-03T10:59:38;1.30;;;0.93;;
16593;SDS011;8410;52.532;13.336;2023-04-03T11:02:13;2.33;;;0.80;;
16593;SDS011;8410;52.532;13.336;2023-04-03T11:04:50;2.70;;;1.10;;
16593;SDS011;8410;52.532;13.336;2023-04-03T11:07:21;1.93;;;1.10;;
16593;SDS011;8410;52.532;13.336;2023-04-03T11:09:52;2.90;;;0.80;;
16593;SDS011;8410;52.532;13.336;2023-04-03T11:12:25;6.13;;;1.50;;
16593;SDS011;8410;52.532;13.336;2023-04-03T11:14:58;1.73;;;0.90;;
16593;SDS011;8410;52.532;13.336;2023-04-03T11:17:31;2.73;;;1.17;;
16593;SDS011;8410;52.532;13.336;2023-04-03T11:20:06;2.97;;;1.07;;
16593;SDS011;8410;52.532;13.336;2023-04-03T11:22:43;2.23;;;0.90;;
16593;SDS011;8410;52.532;13.336;2023-04-03T11:25:17;2.07;;;1.03;;
16593;SDS011;8410;52.532;13.336;2023-04-03T11:27:49;4.70;;;1.10;;
16593;SDS011;8410;52.532;13.336;2023-04-03T11:30:20;2.87;;;1.17;;
16593;SDS011;8410;52.532;13.336;2023-04-03T11:35:51;3.80;;;0.93;;
16593;SDS011;8410;52.532;13.336;2023-04-03T11:38:22;2.50;;;1.00;;
16593;SDS011;8410;52.532;13.336;2023-04-03T11:40:53;1.57;;;0.80;;
16593;SDS011;8410;52.532;13.336;2023-04-03T11:43:24;2.70;;;1.00;;
16593;SDS011;8410;52.532;13.336;2023-04-03T11:45:54;1.23;;;0.83;;
16593;SDS011;8410;52.532;13.336;2023-04-03T11:51:40;1.87;;;0.83;;
16593;SDS011;8410;52.532;13.336;2023-04-03T12:03:32;3.90;;;0.87;;
16593;SDS011;8410;52.532;13.336;2023-04-03T12:12:56;2.57;;;1.10;;
16593;SDS011;8410;52.532;13.336;2023-04-03T12:15:41;2.03;;;0.97;;
16593;SDS011;8410;52.532;13.336;2023-04-03T12:21:19;2.20;;;1.00;;
16593;SDS011;8410;52.532;13.336;2023-04-03T12:24:03;3.20;;;1.00;;
16593;SDS011;8410;52.532;13.336;2023-04-03T12:26:41;1.27;;;0.93;;
16593;SDS011;8410;52.532;13.336;2023-04-03T12:29:15;2.83;;;1.30;;
16593;SDS011;8410;52.532;13.336;2023-04-03T12:31:50;2.47;;;1.10;;
16593;SDS011;8410;52.532;13.336;2023-04-03T12:37:26;2.63;;;1.00;;
16593;SDS011;8410;52.532;13.336;2023-04-03T12:40:11;2.30;;;1.00;;
16593;SDS011;8410;52.532;13.336;2023-04-03T12:42:55;1.57;;;0.90;;
16593;SDS011;8410;52.532;13.336;2023-04-03T12:45:38;2.03;;;0.87;;
16593;SDS011;8410;52.532;13.336;2023-04-03T12:48:12;2.67;;;1.00;;
16593;SDS011;8410;52.532;13.336;2023-04-03T12:50:42;2.97;;;1.00;;
16593;SDS011;8410;52.532;13.336;2023-04-03T12:53:12;1.93;;;0.67;;
16593;SDS011;8410;52.532;13.336;2023-04-03T12:55:45;2.63;;;0.80;;
16593;SDS011;8410;52.532;13.336;2023-04-03T12:58:13;2.10;;;0.80;;
16593;SDS011;8410;52.532;13.336;2023-04-03T13:00:42;2.60;;;0.77;;
16593;SDS011;8410;52.532;13.336;2023-04-03T13:03:19;1.53;;;0.90;;
16593;SDS011;8410;52.532;13.336;2023-04-03T13:05:50;2.57;;;0.90;;
16593;SDS011;8410;52.532;13.336;2023-04-03T13:08:17;3.77;;;1.00;;
16593;SDS011;8410;52.532;13.336;2023-04-03T13:10:51;3.83;;;1.47;;
16593;SDS011;8410;52.532;13.336;2023-04-03T13:13:22;0.87;;;0.70;;
16593;SDS011;8410;52.532;13.336;2023-04-03T13:15:50;3.00;;;1.17;;
16593;SDS011;8410;52.532;13.336;2023-04-03T13:18:26;3.37;;;1.10;;
16593;SDS011;8410;52.532;13.336;2023-04-03T13:20:57;1.93;;;1.00;;
16593;SDS011;8410;52.532;13.336;2023-04-03T13:23:29;1.70;;;0.80;;
16593;SDS011;8410;52.532;13.336;2023-04-03T13:25:58;4.43;;;0.90;;
16593;SDS011;8410;52.532;13.336;2023-04-03T13:28:29;2.77;;;1.00;;
16593;SDS011;8410;52.532;13.336;2023-04-03T13:31:00;2.03;;;1.00;;
16593;SDS011;8410;52.532;13.336;2023-04-03T13:33:32;1.73;;;1.03;;
16593;SDS011;8410;52.532;13.336;2023-04-03T13:36:04;1.37;;;0.90;;
16593;SDS011;8410;52.532;13.336;2023-04-03T13:38:35;2.83;;;1.10;;
16593;SDS011;8410;52.532;13.336;2023-04-03T13:41:05;2.03;;;0.90;;
16593;SDS011;8410;52.532;13.336;2023-04-03T13:43:50;2.73;;;1.10;;
16593;SDS011;8410;52.532;13.336;2023-04-03T13:46:24;5.33;;;1.20;;
16593;SDS011;8410;52.532;13.336;2023-04-03T13:48:54;1.47;;;0.93;;
16593;SDS011;8410;52.532;13.336;2023-04-03T13:51:23;3.37;;;1.00;;
16593;SDS011;8410;52.532;13.336;2023-04-03T13:53:53;1.43;;;0.83;;
16593;SDS011;8410;52.532;13.336;2023-04-03T13:56:26;3.80;;;1.17;;
16593;SDS011;8410;52.532;13.336;2023-04-03T13:59:00;3.50;;;1.03;;
16593;SDS011;8410;52.532;13.336;2023-04-03T14:04:18;4.00;;;1.13;;
16593;SDS011;8410;52.532;13.336;2023-04-03T14:06:48;5.63;;;0.87;;
16593;SDS011;8410;52.532;13.336;2023-04-03T14:09:17;1.73;;;0.83;;
16593;SDS011;8410;52.532;13.336;2023-04-03T14:11:47;2.83;;;0.90;;
16593;SDS011;8410;52.532;13.336;2023-04-03T14:14:18;2.27;;;1.10;;
16593;SDS011;8410;52.532;13.336;2023-04-03T14:16:50;1.80;;;0.80;;
16593;SDS011;8410;52.532;13.336;2023-04-03T14:19:22;1.53;;;0.87;;
16593;SDS011;8410;52.532;13.336;2023-04-03T14:21:51;3.83;;;1.03;;
16593;SDS011;8410;52.532;13.336;2023-04-03T14:24:19;1.63;;;0.90;;
16593;SDS011;8410;52.532;13.336;2023-04-03T14:26:50;3.47;;;1.10;;
16593;SDS011;8410;52.532;13.336;2023-04-03T14:29:20;2.63;;;1.27;;
16593;SDS011;8410;52.532;13.336;2023-04-03T14:31:49;2.40;;;1.00;;
16593;SDS011;8410;52.532;13.336;2023-04-03T14:34:32;1.70;;;0.93;;
16593;SDS011;8410;52.532;13.336;2023-04-03T14:37:00;2.80;;;1.10;;
16593;SDS011;8410;52.532;13.336;2023-04-03T14:39:27;1.83;;;0.90;;
16593;SDS011;8410;52.532;13.336;2023-04-03T14:41:57;2.07;;;1.00;;
16593;SDS011;8410;52.532;13.336;2023-04-03T14:44:25;1.60;;;0.83;;
16593;SDS011;8410;52.532;13.336;2023-04-03T14:46:52;3.90;;;0.80;;
16593;SDS011;8410;52.532;13.336;2023-04-03T14:49:23;3.77;;;0.97;;
16593;SDS011;8410;52.532;13.336;2023-04-03T14:51:55;2.93;;;1.10;;
16593;SDS011;8410;52.532;13.336;2023-04-03T14:54:23;2.97;;;1.20;;
16593;SDS011;8410;52.532;13.336;2023-04-03T14:56:54;2.97;;;1.10;;
16593;SDS011;8410;52.532;13.336;2023-04-03T14:59:41;2.20;;;1.00;;
16593;SDS011;8410;52.532;13.336;2023-04-03T15:02:11;2.20;;;1.00;;
16593;SDS011;8410;52.532;13.336;2023-04-03T15:04:52;2.57;;;1.43;;
16593;SDS011;8410;52.532;13.336;2023-04-03T15:07:20;2.30;;;1.00;;
16593;SDS011;8410;52.532;13.336;2023-04-03T15:09:48;1.90;;;1.10;;
16593;SDS011;8410;52.532;13.336;2023-04-03T15:12:15;1.17;;;0.90;;
16593;SDS011;8410;52.532;13.336;2023-04-03T15:14:45;2.20;;;1.00;;
16593;SDS011;8410;52.532;13.336;2023-04-03T15:17:26;2.37;;;1.00;;
16593;SDS011;8410;52.532;13.336;2023-04-03T15:19:53;1.80;;;0.90;;
16593;SDS011;8410;52.532;13.336;2023-04-03T15:22:21;3.27;;;1.30;;
16593;SDS011;8410;52.532;13.336;2023-04-03T15:24:48;4.13;;;1.20;;
16593;SDS011;8410;52.532;13.336;2023-04-03T15:27:16;2.03;;;0.90;;
16593;SDS011;8410;52.532;13.336;2023-04-03T15:29:45;2.37;;;1.20;;
16593;SDS011;8410;52.532;13.336;2023-04-03T15:32:12;3.40;;;1.07;;
16593;SDS011;8410;52.532;13.336;2023-04-03T15:34:40;2.00;;;1.10;;
16593;SDS011;8410;52.532;13.336;2023-04-03T15:37:08;2.00;;;1.07;;
16593;SDS011;8410;52.532;13.336;2023-04-03T15:39:35;1.93;;;1.10;;
16593;SDS011;8410;52.532;13.336;2023-04-03T15:42:03;2.93;;;1.00;;
16593;SDS011;8410;52.532;13.336;2023-04-03T15:44:32;3.50;;;1.00;;
16593;SDS011;8410;52.532;13.336;2023-04-03T15:47:02;2.03;;;1.00;;
16593;SDS011;8410;52.532;13.336;2023-04-03T15:49:30;3.33;;;0.90;;